Terminal Aerodrome Forecast
Issued by NWS

Home | Current Version | Previous Version | Text Only | Print | Product List | Glossary On
Versions: 1 2 3 4 5 6 7 8 9 10 11 12 13 14
528
FTUS43 KMQT 282339
TAFCMX
TAF
KCMX 282339Z 2900/2924 10009KT 3SM -SHRA BR OVC003
     FM290500 09008KT 1 1/2SM -SHRA BR OVC003
     FM291100 07007KT 1 1/2SM BR VCSH OVC003
     FM291400 36008KT 3SM BR OVC004
     FM291800 33011KT 5SM BR OVC005=

USA.gov is the U.S. government's official web portal to all federal, state and local government web resources and services.